sensor_id;sensor_type;location;lat;lon;timestamp;pressure;altitude;pressure_sealevel;temperature;humidity
41312;BME280;27061;41.648;24.568;2023-04-25T00:00:28;85206.75;;;8.17;79.65
41312;BME280;27061;41.648;24.568;2023-04-25T00:02:55;85168.56;;;7.92;78.67
41312;BME280;27061;41.648;24.568;2023-04-25T00:05:23;85258.44;;;8.67;78.57
41312;BME280;27061;41.648;24.568;2023-04-25T00:07:51;85167.13;;;7.95;77.81
41312;BME280;27061;41.648;24.568;2023-04-25T00:10:19;85212.06;;;8.33;77.33
41312;BME280;27061;41.648;24.568;2023-04-25T00:12:46;85223.28;;;8.19;78.90
41312;BME280;27061;41.648;24.568;2023-04-25T00:15:14;85250.31;;;8.57;77.83
41312;BME280;27061;41.648;24.568;2023-04-25T00:17:41;85196.34;;;8.23;77.70
41312;BME280;27061;41.648;24.568;2023-04-25T00:20:09;85242.75;;;8.56;77.13
41312;BME280;27061;41.648;24.568;2023-04-25T00:22:37;85263.88;;;8.71;77.04
41312;BME280;27061;41.648;24.568;2023-04-25T00:25:05;85199.97;;;8.12;78.19
41312;BME280;27061;41.648;24.568;2023-04-25T00:27:33;85199.91;;;8.16;77.11
41312;BME280;27061;41.648;24.568;2023-04-25T00:30:00;85117.56;;;7.44;77.94
41312;BME280;27061;41.648;24.568;2023-04-25T00:32:27;85182.03;;;8.13;78.12
41312;BME280;27061;41.648;24.568;2023-04-25T00:34:54;85232.25;;;8.66;76.49
41312;BME280;27061;41.648;24.568;2023-04-25T00:37:23;85178.41;;;8.24;77.40
41312;BME280;27061;41.648;24.568;2023-04-25T00:39:50;85233.78;;;8.57;77.33
41312;BME280;27061;41.648;24.568;2023-04-25T00:42:20;85131.69;;;7.69;78.53
41312;BME280;27061;41.648;24.568;2023-04-25T00:44:48;85184.78;;;8.13;79.11
41312;BME280;27061;41.648;24.568;2023-04-25T00:47:15;85171.03;;;8.11;78.91
41312;BME280;27061;41.648;24.568;2023-04-25T00:49:43;85223.69;;;8.39;79.70
41312;BME280;27061;41.648;24.568;2023-04-25T00:52:11;85225.66;;;8.47;79.35
41312;BME280;27061;41.648;24.568;2023-04-25T00:54:39;85190.00;;;8.33;78.75
41312;BME280;27061;41.648;24.568;2023-04-25T00:57:06;85188.50;;;8.42;78.52
41312;BME280;27061;41.648;24.568;2023-04-25T00:59:35;85241.38;;;8.57;79.26
41312;BME280;27061;41.648;24.568;2023-04-25T01:02:04;85145.16;;;7.89;79.93
41312;BME280;27061;41.648;24.568;2023-04-25T01:04:31;85225.56;;;8.51;80.81
41312;BME280;27061;41.648;24.568;2023-04-25T01:06:58;85202.78;;;8.07;82.71
41312;BME280;27061;41.648;24.568;2023-04-25T01:09:26;85171.09;;;8.06;82.19
41312;BME280;27061;41.648;24.568;2023-04-25T01:11:53;85213.47;;;8.30;83.40
41312;BME280;27061;41.648;24.568;2023-04-25T01:14:20;85217.41;;;8.45;83.90
41312;BME280;27061;41.648;24.568;2023-04-25T01:16:47;85218.63;;;8.54;81.92
41312;BME280;27061;41.648;24.568;2023-04-25T01:19:16;85221.38;;;8.56;82.35
41312;BME280;27061;41.648;24.568;2023-04-25T01:21:46;85160.06;;;8.06;83.37
41312;BME280;27061;41.648;24.568;2023-04-25T01:24:13;85209.16;;;8.43;83.24
41312;BME280;27061;41.648;24.568;2023-04-25T01:26:42;85199.53;;;8.42;84.04
41312;BME280;27061;41.648;24.568;2023-04-25T01:29:21;85203.44;;;8.55;83.23
41312;BME280;27061;41.648;24.568;2023-04-25T01:31:49;85174.84;;;8.34;84.35
41312;BME280;27061;41.648;24.568;2023-04-25T01:34:18;85206.09;;;8.61;83.41
41312;BME280;27061;41.648;24.568;2023-04-25T01:36:47;85101.22;;;7.79;82.83
41312;BME280;27061;41.648;24.568;2023-04-25T01:39:16;85200.19;;;8.42;84.04
41312;BME280;27061;41.648;24.568;2023-04-25T01:41:45;85206.78;;;8.62;82.69
41312;BME280;27061;41.648;24.568;2023-04-25T01:44:14;85093.69;;;7.78;83.83
41312;BME280;27061;41.648;24.568;2023-04-25T01:46:41;85181.84;;;8.25;83.19
41312;BME280;27061;41.648;24.568;2023-04-25T01:49:10;85161.16;;;8.26;82.93
41312;BME280;27061;41.648;24.568;2023-04-25T01:51:38;85188.38;;;8.48;83.66
41312;BME280;27061;41.648;24.568;2023-04-25T01:54:05;85156.72;;;8.00;83.60
41312;BME280;27061;41.648;24.568;2023-04-25T01:56:32;85143.44;;;8.13;84.23
41312;BME280;27061;41.648;24.568;2023-04-25T01:59:01;85186.47;;;8.38;84.83
41312;BME280;27061;41.648;24.568;2023-04-25T02:01:48;85151.75;;;8.08;84.71
41312;BME280;27061;41.648;24.568;2023-04-25T02:04:22;85176.91;;;8.33;85.58
41312;BME280;27061;41.648;24.568;2023-04-25T02:06:50;85079.50;;;7.59;83.95
41312;BME280;27061;41.648;24.568;2023-04-25T02:09:18;85170.69;;;8.35;83.53
41312;BME280;27061;41.648;24.568;2023-04-25T02:11:50;85156.91;;;8.31;81.53
41312;BME280;27061;41.648;24.568;2023-04-25T02:14:26;85140.47;;;8.25;81.96
41312;BME280;27061;41.648;24.568;2023-04-25T02:17:02;85173.19;;;8.49;81.78
41312;BME280;27061;41.648;24.568;2023-04-25T02:19:30;85129.56;;;8.17;81.80
41312;BME280;27061;41.648;24.568;2023-04-25T02:21:57;85169.88;;;8.42;83.01
41312;BME280;27061;41.648;24.568;2023-04-25T02:24:24;85125.41;;;8.18;82.98
41312;BME280;27061;41.648;24.568;2023-04-25T02:26:52;85169.69;;;8.53;82.91
41312;BME280;27061;41.648;24.568;2023-04-25T02:29:19;85155.34;;;8.44;82.58
41312;BME280;27061;41.648;24.568;2023-04-25T02:31:46;85152.97;;;8.63;82.43
41312;BME280;27061;41.648;24.568;2023-04-25T02:34:13;85142.09;;;8.53;83.05
41312;BME280;27061;41.648;24.568;2023-04-25T02:36:40;85055.38;;;8.02;80.88
41312;BME280;27061;41.648;24.568;2023-04-25T02:39:07;85104.38;;;8.41;79.75
41312;BME280;27061;41.648;24.568;2023-04-25T02:41:34;85119.53;;;8.42;79.91
41312;BME280;27061;41.648;24.568;2023-04-25T02:44:01;85070.41;;;8.09;79.15
41312;BME280;27061;41.648;24.568;2023-04-25T02:46:28;85124.69;;;8.62;78.89
41312;BME280;27061;41.648;24.568;2023-04-25T02:49:06;85101.03;;;8.36;79.08
41312;BME280;27061;41.648;24.568;2023-04-25T02:51:34;85025.31;;;7.88;79.50
41312;BME280;27061;41.648;24.568;2023-04-25T02:54:02;85111.13;;;8.48;80.79
41312;BME280;27061;41.648;24.568;2023-04-25T02:56:32;85085.38;;;8.23;79.92
41312;BME280;27061;41.648;24.568;2023-04-25T02:58:59;85090.34;;;8.14;80.25
41312;BME280;27061;41.648;24.568;2023-04-25T03:01:27;85124.19;;;8.52;80.73
41312;BME280;27061;41.648;24.568;2023-04-25T03:03:54;85124.91;;;8.50;80.81
41312;BME280;27061;41.648;24.568;2023-04-25T03:06:21;85146.59;;;8.72;80.23
41312;BME280;27061;41.648;24.568;2023-04-25T03:08:48;85114.19;;;8.32;80.84
41312;BME280;27061;41.648;24.568;2023-04-25T03:11:16;85079.41;;;8.08;80.88
41312;BME280;27061;41.648;24.568;2023-04-25T03:13:43;85160.69;;;8.56;81.53
41312;BME280;27061;41.648;24.568;2023-04-25T03:16:10;85137.34;;;8.49;81.62
41312;BME280;27061;41.648;24.568;2023-04-25T03:18:38;85058.41;;;7.86;82.15
41312;BME280;27061;41.648;24.568;2023-04-25T03:21:05;85101.25;;;8.20;82.49
41312;BME280;27061;41.648;24.568;2023-04-25T03:23:32;85115.75;;;8.19;81.95
41312;BME280;27061;41.648;24.568;2023-04-25T03:26:00;85072.22;;;7.84;81.93
41312;BME280;27061;41.648;24.568;2023-04-25T03:28:27;85080.56;;;7.80;83.37
41312;BME280;27061;41.648;24.568;2023-04-25T03:30:55;85110.44;;;8.06;82.41
41312;BME280;27061;41.648;24.568;2023-04-25T03:33:23;85121.22;;;8.23;82.67
41312;BME280;27061;41.648;24.568;2023-04-25T03:35:51;85091.41;;;7.90;80.75
41312;BME280;27061;41.648;24.568;2023-04-25T03:38:18;85105.78;;;7.95;81.17
41312;BME280;27061;41.648;24.568;2023-04-25T03:40:45;85164.88;;;8.51;82.16
41312;BME280;27061;41.648;24.568;2023-04-25T03:43:12;85095.41;;;7.99;82.53
41312;BME280;27061;41.648;24.568;2023-04-25T03:45:46;85116.63;;;8.07;83.62
41312;BME280;27061;41.648;24.568;2023-04-25T03:48:15;85125.41;;;8.18;84.33
41312;BME280;27061;41.648;24.568;2023-04-25T03:50:42;85066.75;;;7.82;84.42
41312;BME280;27061;41.648;24.568;2023-04-25T03:53:09;85124.22;;;8.06;84.66
41312;BME280;27061;41.648;24.568;2023-04-25T03:56:06;85075.00;;;7.82;84.48
41312;BME280;27061;41.648;24.568;2023-04-25T03:58:35;85143.69;;;8.39;83.93
41312;BME280;27061;41.648;24.568;2023-04-25T04:01:02;85049.66;;;7.73;83.88
41312;BME280;27061;41.648;24.568;2023-04-25T04:03:37;85164.03;;;8.61;84.02
41312;BME280;27061;41.648;24.568;2023-04-25T04:06:06;85101.97;;;8.19;84.16
41312;BME280;27061;41.648;24.568;2023-04-25T04:08:37;85108.78;;;8.24;84.49
41312;BME280;27061;41.648;24.568;2023-04-25T04:11:05;85109.00;;;8.12;86.05
41312;BME280;27061;41.648;24.568;2023-04-25T04:13:32;85137.50;;;8.39;85.22
41312;BME280;27061;41.648;24.568;2023-04-25T04:16:01;85174.41;;;8.58;84.97
41312;BME280;27061;41.648;24.568;2023-04-25T04:18:28;85073.34;;;7.99;85.74
41312;BME280;27061;41.648;24.568;2023-04-25T04:20:56;85167.31;;;8.69;85.91
41312;BME280;27061;41.648;24.568;2023-04-25T04:23:27;85153.66;;;8.63;86.49
41312;BME280;27061;41.648;24.568;2023-04-25T04:25:56;85143.25;;;8.66;85.41
41312;BME280;27061;41.648;24.568;2023-04-25T04:28:56;85156.19;;;8.75;84.09
41312;BME280;27061;41.648;24.568;2023-04-25T04:31:50;85179.47;;;8.87;84.52
41312;BME280;27061;41.648;24.568;2023-04-25T04:34:18;85150.66;;;8.36;87.20
41312;BME280;27061;41.648;24.568;2023-04-25T04:36:45;85151.22;;;8.43;85.46
41312;BME280;27061;41.648;24.568;2023-04-25T04:39:14;85163.19;;;8.70;82.99
41312;BME280;27061;41.648;24.568;2023-04-25T04:41:53;85125.09;;;8.38;82.25
41312;BME280;27061;41.648;24.568;2023-04-25T04:44:38;85160.16;;;8.46;82.34
41312;BME280;27061;41.648;24.568;2023-04-25T04:47:13;85192.84;;;8.70;82.67
41312;BME280;27061;41.648;24.568;2023-04-25T04:50:10;85143.25;;;8.25;84.03
41312;BME280;27061;41.648;24.568;2023-04-25T04:52:56;85189.72;;;8.51;83.93
41312;BME280;27061;41.648;24.568;2023-04-25T04:55:42;85165.19;;;8.31;84.57
41312;BME280;27061;41.648;24.568;2023-04-25T04:58:22;85158.41;;;8.26;83.93
41312;BME280;27061;41.648;24.568;2023-04-25T05:01:04;85166.53;;;8.36;82.71
41312;BME280;27061;41.648;24.568;2023-04-25T05:03:37;85156.91;;;8.33;82.92
41312;BME280;27061;41.648;24.568;2023-04-25T05:06:30;85184.19;;;8.51;84.22
41312;BME280;27061;41.648;24.568;2023-04-25T05:09:20;85147.13;;;8.42;85.34
41312;BME280;27061;41.648;24.568;2023-04-25T05:12:11;85132.00;;;8.39;83.18
41312;BME280;27061;41.648;24.568;2023-04-25T05:14:51;85154.88;;;8.72;82.91
41312;BME280;27061;41.648;24.568;2023-04-25T05:17:50;85097.47;;;8.42;83.41
41312;BME280;27061;41.648;24.568;2023-04-25T05:20:23;85139.53;;;8.81;83.62
41312;BME280;27061;41.648;24.568;2023-04-25T05:23:20;85092.38;;;8.57;82.96
41312;BME280;27061;41.648;24.568;2023-04-25T05:25:54;85087.44;;;8.63;82.92
41312;BME280;27061;41.648;24.568;2023-04-25T05:28:41;85040.53;;;8.24;80.96
41312;BME280;27061;41.648;24.568;2023-04-25T05:31:27;85084.28;;;8.47;81.49
41312;BME280;27061;41.648;24.568;2023-04-25T05:34:01;85005.44;;;7.82;81.11
41312;BME280;27061;41.648;24.568;2023-04-25T05:36:47;85108.81;;;8.63;77.38
41312;BME280;27061;41.648;24.568;2023-04-25T05:39:18;85105.72;;;8.44;81.24
41312;BME280;27061;41.648;24.568;2023-04-25T05:42:20;85072.00;;;8.39;84.02
41312;BME280;27061;41.648;24.568;2023-04-25T05:44:53;85155.72;;;9.02;85.76
41312;BME280;27061;41.648;24.568;2023-04-25T05:47:55;85109.69;;;8.53;86.68
41312;BME280;27061;41.648;24.568;2023-04-25T05:50:40;85133.25;;;8.85;86.79
41312;BME280;27061;41.648;24.568;2023-04-25T05:53:31;85117.25;;;8.92;85.44
41312;BME280;27061;41.648;24.568;2023-04-25T05:56:00;85083.13;;;8.72;85.35
41312;BME280;27061;41.648;24.568;2023-04-25T05:58:28;85034.66;;;8.47;81.28
41312;BME280;27061;41.648;24.568;2023-04-25T06:00:58;85126.44;;;9.17;83.28
41312;BME280;27061;41.648;24.568;2023-04-25T06:03:25;85136.19;;;9.47;88.04
41312;BME280;27061;41.648;24.568;2023-04-25T06:05:53;85127.25;;;9.44;87.95
41312;BME280;27061;41.648;24.568;2023-04-25T06:08:20;85088.75;;;9.36;86.71
41312;BME280;27061;41.648;24.568;2023-04-25T06:10:47;85084.94;;;9.21;90.34
41312;BME280;27061;41.648;24.568;2023-04-25T06:13:14;85074.16;;;9.42;89.94
41312;BME280;27061;41.648;24.568;2023-04-25T06:15:42;85059.66;;;9.41;90.82
41312;BME280;27061;41.648;24.568;2023-04-25T06:18:11;85119.31;;;9.94;95.45
41312;BME280;27061;41.648;24.568;2023-04-25T06:20:38;85121.66;;;10.12;95.44
41312;BME280;27061;41.648;24.568;2023-04-25T06:23:05;85106.59;;;10.05;96.95
41312;BME280;27061;41.648;24.568;2023-04-25T06:25:44;85129.41;;;10.37;98.01
41312;BME280;27061;41.648;24.568;2023-04-25T06:28:11;85147.13;;;10.48;96.29
41312;BME280;27061;41.648;24.568;2023-04-25T06:30:39;85084.28;;;10.13;92.72
41312;BME280;27061;41.648;24.568;2023-04-25T06:33:10;84972.78;;;9.34;81.23
41312;BME280;27061;41.648;24.568;2023-04-25T06:35:38;85114.31;;;10.32;82.75
41312;BME280;27061;41.648;24.568;2023-04-25T06:38:08;85148.19;;;10.61;83.21
41312;BME280;27061;41.648;24.568;2023-04-25T06:40:37;85095.25;;;10.17;78.02
41312;BME280;27061;41.648;24.568;2023-04-25T06:43:06;85111.16;;;10.48;79.13
41312;BME280;27061;41.648;24.568;2023-04-25T06:45:50;85127.41;;;10.62;79.31
41312;BME280;27061;41.648;24.568;2023-04-25T06:48:19;85102.75;;;10.52;80.91
41312;BME280;27061;41.648;24.568;2023-04-25T06:50:46;85130.59;;;10.73;77.59
41312;BME280;27061;41.648;24.568;2023-04-25T06:53:13;85125.69;;;10.75;77.57
41312;BME280;27061;41.648;24.568;2023-04-25T06:55:54;85135.31;;;10.78;81.26
41312;BME280;27061;41.648;24.568;2023-04-25T06:58:22;85146.31;;;11.09;83.63
41312;BME280;27061;41.648;24.568;2023-04-25T07:00:49;85096.88;;;10.66;86.60
41312;BME280;27061;41.648;24.568;2023-04-25T07:03:19;85073.72;;;10.51;85.40
41312;BME280;27061;41.648;24.568;2023-04-25T07:05:59;85154.31;;;11.21;78.72
41312;BME280;27061;41.648;24.568;2023-04-25T07:08:28;85116.97;;;10.91;85.70
41312;BME280;27061;41.648;24.568;2023-04-25T07:10:57;85137.63;;;10.96;78.70
41312;BME280;27061;41.648;24.568;2023-04-25T07:13:24;85095.09;;;10.25;77.92
41312;BME280;27061;41.648;24.568;2023-04-25T07:15:52;85102.78;;;10.50;71.64
41312;BME280;27061;41.648;24.568;2023-04-25T07:18:24;85140.13;;;10.80;79.07
41312;BME280;27061;41.648;24.568;2023-04-25T07:20:51;85065.63;;;10.14;84.32
41312;BME280;27061;41.648;24.568;2023-04-25T07:23:18;85143.50;;;10.82;80.08
41312;BME280;27061;41.648;24.568;2023-04-25T07:25:46;85095.97;;;10.47;77.15
41312;BME280;27061;41.648;24.568;2023-04-25T07:28:19;85143.81;;;10.70;73.37
41312;BME280;27061;41.648;24.568;2023-04-25T07:30:47;85064.13;;;10.19;73.92
41312;BME280;27061;41.648;24.568;2023-04-25T07:33:14;85134.44;;;10.86;71.79
41312;BME280;27061;41.648;24.568;2023-04-25T07:35:41;85132.69;;;10.72;72.29
41312;BME280;27061;41.648;24.568;2023-04-25T07:38:09;85159.94;;;10.90;73.04
41312;BME280;27061;41.648;24.568;2023-04-25T07:40:37;85150.66;;;10.73;69.70
41312;BME280;27061;41.648;24.568;2023-04-25T07:43:07;85158.44;;;10.67;73.00
41312;BME280;27061;41.648;24.568;2023-04-25T07:45:56;85079.81;;;9.98;74.26
41312;BME280;27061;41.648;24.568;2023-04-25T07:48:26;85163.94;;;10.69;74.18
41312;BME280;27061;41.648;24.568;2023-04-25T07:50:53;85161.47;;;10.56;73.62
41312;BME280;27061;41.648;24.568;2023-04-25T07:53:20;85058.44;;;9.65;73.51
41312;BME280;27061;41.648;24.568;2023-04-25T07:55:52;85130.34;;;10.27;74.47
41312;BME280;27061;41.648;24.568;2023-04-25T07:58:20;85139.44;;;10.21;74.54
41312;BME280;27061;41.648;24.568;2023-04-25T08:00:58;85170.53;;;10.53;75.31
41312;BME280;27061;41.648;24.568;2023-04-25T08:03:46;85169.28;;;10.48;71.73
41312;BME280;27061;41.648;24.568;2023-04-25T08:06:33;85171.13;;;10.57;72.18
41312;BME280;27061;41.648;24.568;2023-04-25T08:09:07;85122.28;;;10.15;72.71
41312;BME280;27061;41.648;24.568;2023-04-25T08:11:38;85166.56;;;10.46;70.84
41312;BME280;27061;41.648;24.568;2023-04-25T08:14:07;85167.72;;;10.55;72.36
41312;BME280;27061;41.648;24.568;2023-04-25T08:16:36;85122.53;;;10.05;72.14
41312;BME280;27061;41.648;24.568;2023-04-25T08:19:09;85166.06;;;10.37;73.15
41312;BME280;27061;41.648;24.568;2023-04-25T08:21:37;85142.09;;;10.27;72.08
41312;BME280;27061;41.648;24.568;2023-04-25T08:24:08;85142.94;;;10.49;72.83
41312;BME280;27061;41.648;24.568;2023-04-25T08:26:38;85175.97;;;10.57;71.71
41312;BME280;27061;41.648;24.568;2023-04-25T08:29:06;85141.94;;;10.34;72.80
41312;BME280;27061;41.648;24.568;2023-04-25T08:31:37;85142.22;;;10.21;74.53
41312;BME280;27061;41.648;24.568;2023-04-25T08:34:06;85181.50;;;10.57;72.76
41312;BME280;27061;41.648;24.568;2023-04-25T08:36:45;85156.53;;;10.30;74.31
41312;BME280;27061;41.648;24.568;2023-04-25T08:39:33;85182.31;;;10.51;76.28
41312;BME280;27061;41.648;24.568;2023-04-25T08:42:27;85086.69;;;9.99;73.47
41312;BME280;27061;41.648;24.568;2023-04-25T08:44:56;85125.53;;;10.25;75.62
41312;BME280;27061;41.648;24.568;2023-04-25T08:47:29;85117.03;;;10.34;75.89
41312;BME280;27061;41.648;24.568;2023-04-25T08:49:58;85110.03;;;10.37;71.88
41312;BME280;27061;41.648;24.568;2023-04-25T08:52:28;85173.59;;;10.98;72.52
41312;BME280;27061;41.648;24.568;2023-04-25T08:54:57;85151.88;;;10.80;71.37
41312;BME280;27061;41.648;24.568;2023-04-25T08:57:27;85174.69;;;11.10;71.74
41312;BME280;27061;41.648;24.568;2023-04-25T08:59:59;85087.59;;;10.49;71.02
41312;BME280;27061;41.648;24.568;2023-04-25T09:02:28;85177.06;;;11.24;71.96
41312;BME280;27061;41.648;24.568;2023-04-25T09:04:56;85148.53;;;11.02;69.74
41312;BME280;27061;41.648;24.568;2023-04-25T09:07:24;85175.53;;;11.31;72.44
41312;BME280;27061;41.648;24.568;2023-04-25T09:09:53;85179.53;;;11.36;74.31
41312;BME280;27061;41.648;24.568;2023-04-25T09:12:21;85157.25;;;11.40;72.60
41312;BME280;27061;41.648;24.568;2023-04-25T09:15:07;85167.44;;;11.74;77.54
41312;BME280;27061;41.648;24.568;2023-04-25T09:18:00;85153.75;;;11.66;69.57
41312;BME280;27061;41.648;24.568;2023-04-25T09:20:41;85131.66;;;11.64;65.72
41312;BME280;27061;41.648;24.568;2023-04-25T09:23:19;85149.22;;;11.82;70.35
41312;BME280;27061;41.648;24.568;2023-04-25T09:25:50;85143.56;;;11.86;68.49
41312;BME280;27061;41.648;24.568;2023-04-25T09:28:25;85143.78;;;12.02;63.15
41312;BME280;27061;41.648;24.568;2023-04-25T09:30:57;85080.31;;;11.43;62.06
41312;BME280;27061;41.648;24.568;2023-04-25T09:33:46;85147.28;;;12.01;62.67
41312;BME280;27061;41.648;24.568;2023-04-25T09:36:15;85115.16;;;11.85;64.12
41312;BME280;27061;41.648;24.568;2023-04-25T09:39:00;85118.94;;;11.73;66.95
41312;BME280;27061;41.648;24.568;2023-04-25T09:41:31;85131.31;;;11.77;63.96
41312;BME280;27061;41.648;24.568;2023-04-25T09:44:01;85174.09;;;12.08;63.62
41312;BME280;27061;41.648;24.568;2023-04-25T09:46:35;85167.94;;;12.06;67.35
41312;BME280;27061;41.648;24.568;2023-04-25T09:49:10;85109.31;;;11.70;64.86
41312;BME280;27061;41.648;24.568;2023-04-25T09:51:58;85170.59;;;12.10;64.17
41312;BME280;27061;41.648;24.568;2023-04-25T09:54:34;85167.22;;;12.07;64.68
41312;BME280;27061;41.648;24.568;2023-04-25T09:57:23;85166.28;;;12.15;64.92
41312;BME280;27061;41.648;24.568;2023-04-25T09:59:54;85127.91;;;11.99;69.86
41312;BME280;27061;41.648;24.568;2023-04-25T10:02:25;85132.19;;;11.96;68.42
41312;BME280;27061;41.648;24.568;2023-04-25T10:04:57;85159.09;;;12.24;75.78
41312;BME280;27061;41.648;24.568;2023-04-25T10:07:34;85090.53;;;11.73;74.96
41312;BME280;27061;41.648;24.568;2023-04-25T10:10:12;85162.34;;;12.31;75.00
41312;BME280;27061;41.648;24.568;2023-04-25T10:12:39;85160.50;;;12.23;67.22
41312;BME280;27061;41.648;24.568;2023-04-25T10:15:10;85103.19;;;11.91;70.53
41312;BME280;27061;41.648;24.568;2023-04-25T10:17:38;85081.88;;;11.85;70.67
41312;BME280;27061;41.648;24.568;2023-04-25T10:20:06;85158.38;;;12.49;71.50
41312;BME280;27061;41.648;24.568;2023-04-25T10:22:41;85156.81;;;12.54;75.20
41312;BME280;27061;41.648;24.568;2023-04-25T10:25:09;85108.94;;;12.30;73.55
41312;BME280;27061;41.648;24.568;2023-04-25T10:27:37;85145.88;;;12.70;79.67
41312;BME280;27061;41.648;24.568;2023-04-25T10:30:23;85099.03;;;12.37;81.44
41312;BME280;27061;41.648;24.568;2023-04-25T10:32:50;85086.38;;;12.42;81.54
41312;BME280;27061;41.648;24.568;2023-04-25T10:35:25;85114.91;;;12.62;80.39
41312;BME280;27061;41.648;24.568;2023-04-25T10:40:27;85119.81;;;12.82;70.56
41312;BME280;27061;41.648;24.568;2023-04-25T10:42:55;85107.88;;;12.42;66.05
41312;BME280;27061;41.648;24.568;2023-04-25T10:45:22;85148.16;;;12.64;62.29
41312;BME280;27061;41.648;24.568;2023-04-25T10:47:50;85092.38;;;12.05;66.30
41312;BME280;27061;41.648;24.568;2023-04-25T10:50:22;85132.38;;;12.35;66.47
41312;BME280;27061;41.648;24.568;2023-04-25T10:52:49;85018.50;;;11.71;69.64
41312;BME280;27061;41.648;24.568;2023-04-25T10:55:16;85085.69;;;12.42;71.88
41312;BME280;27061;41.648;24.568;2023-04-25T10:57:45;85111.63;;;12.78;71.43
41312;BME280;27061;41.648;24.568;2023-04-25T11:00:16;85012.28;;;12.16;66.47
41312;BME280;27061;41.648;24.568;2023-04-25T11:02:57;85086.16;;;12.92;70.71
41312;BME280;27061;41.648;24.568;2023-04-25T11:05:32;85109.91;;;13.31;72.33
41312;BME280;27061;41.648;24.568;2023-04-25T11:08:13;85075.44;;;13.42;66.82
41312;BME280;27061;41.648;24.568;2023-04-25T11:10:41;85063.22;;;13.54;69.22
41312;BME280;27061;41.648;24.568;2023-04-25T11:13:08;85047.38;;;13.69;70.79
41312;BME280;27061;41.648;24.568;2023-04-25T11:15:41;85039.56;;;13.74;67.87
41312;BME280;27061;41.648;24.568;2023-04-25T11:18:09;85082.94;;;14.23;55.20
41312;BME280;27061;41.648;24.568;2023-04-25T11:20:36;85020.41;;;13.84;56.02
41312;BME280;27061;41.648;24.568;2023-04-25T11:23:04;84999.41;;;13.69;59.09
41312;BME280;27061;41.648;24.568;2023-04-25T11:25:31;85034.59;;;14.14;55.84
41312;BME280;27061;41.648;24.568;2023-04-25T11:28:01;85033.00;;;14.19;54.34
41312;BME280;27061;41.648;24.568;2023-04-25T11:30:28;85040.50;;;14.41;56.46
41312;BME280;27061;41.648;24.568;2023-04-25T11:32:59;85038.19;;;14.48;59.94
41312;BME280;27061;41.648;24.568;2023-04-25T11:35:26;85029.06;;;14.49;60.26
41312;BME280;27061;41.648;24.568;2023-04-25T11:37:53;84969.94;;;14.30;56.74
41312;BME280;27061;41.648;24.568;2023-04-25T11:40:20;85050.22;;;14.94;60.04
41312;BME280;27061;41.648;24.568;2023-04-25T11:42:48;85013.84;;;14.82;57.20
41312;BME280;27061;41.648;24.568;2023-04-25T11:45:15;85035.22;;;15.21;56.66
41312;BME280;27061;41.648;24.568;2023-04-25T11:47:42;84991.59;;;14.63;53.94
41312;BME280;27061;41.648;24.568;2023-04-25T11:50:10;85046.53;;;15.00;50.69
41312;BME280;27061;41.648;24.568;2023-04-25T11:55:18;85046.47;;;15.02;54.12
41312;BME280;27061;41.648;24.568;2023-04-25T11:57:48;85030.66;;;14.96;57.22
41312;BME280;27061;41.648;24.568;2023-04-25T12:00:18;85015.53;;;14.91;56.19
41312;BME280;27061;41.648;24.568;2023-04-25T12:02:51;85001.94;;;15.00;59.25
41312;BME280;27061;41.648;24.568;2023-04-25T12:05:19;85027.09;;;15.31;55.04
41312;BME280;27061;41.648;24.568;2023-04-25T12:08:12;84998.22;;;15.22;58.68
41312;BME280;27061;41.648;24.568;2023-04-25T12:10:41;85019.91;;;15.36;53.96
41312;BME280;27061;41.648;24.568;2023-04-25T12:15:46;85023.72;;;15.46;54.68
41312;BME280;27061;41.648;24.568;2023-04-25T12:18:13;85033.94;;;15.51;52.11
41312;BME280;27061;41.648;24.568;2023-04-25T12:20:41;85042.13;;;15.38;51.35
41312;BME280;27061;41.648;24.568;2023-04-25T12:23:08;85030.81;;;15.43;51.32
41312;BME280;27061;41.648;24.568;2023-04-25T12:25:39;85014.50;;;15.49;53.96
41312;BME280;27061;41.648;24.568;2023-04-25T12:28:24;84999.06;;;15.02;53.04
41312;BME280;27061;41.648;24.568;2023-04-25T12:31:04;84984.03;;;14.95;52.49
41312;BME280;27061;41.648;24.568;2023-04-25T12:33:35;84994.91;;;14.84;52.60
41312;BME280;27061;41.648;24.568;2023-04-25T12:36:04;85008.59;;;15.07;50.81
41312;BME280;27061;41.648;24.568;2023-04-25T12:38:40;84991.63;;;14.96;52.95
41312;BME280;27061;41.648;24.568;2023-04-25T12:41:08;84984.44;;;14.85;55.26
41312;BME280;27061;41.648;24.568;2023-04-25T12:43:35;84960.22;;;14.64;49.92
41312;BME280;27061;41.648;24.568;2023-04-25T12:46:02;85016.47;;;15.02;52.47
41312;BME280;27061;41.648;24.568;2023-04-25T12:48:29;84945.69;;;14.45;51.33
41312;BME280;27061;41.648;24.568;2023-04-25T12:51:03;85014.78;;;14.93;53.42
41312;BME280;27061;41.648;24.568;2023-04-25T12:53:31;84941.47;;;14.46;55.80
41312;BME280;27061;41.648;24.568;2023-04-25T12:56:01;84966.47;;;14.65;58.03
41312;BME280;27061;41.648;24.568;2023-04-25T12:58:28;84985.97;;;14.82;56.19
41312;BME280;27061;41.648;24.568;2023-04-25T13:00:55;84939.09;;;14.53;57.29
41312;BME280;27061;41.648;24.568;2023-04-25T13:03:22;84942.66;;;14.51;53.38
41312;BME280;27061;41.648;24.568;2023-04-25T13:05:50;84953.13;;;14.68;50.59
41312;BME280;27061;41.648;24.568;2023-04-25T13:08:19;84982.34;;;14.69;52.57
41312;BME280;27061;41.648;24.568;2023-04-25T13:10:49;84991.88;;;14.74;51.16
41312;BME280;27061;41.648;24.568;2023-04-25T13:13:16;84908.00;;;14.13;54.08
41312;BME280;27061;41.648;24.568;2023-04-25T13:15:44;84975.75;;;14.59;53.50
41312;BME280;27061;41.648;24.568;2023-04-25T13:18:11;84923.38;;;14.28;54.94
41312;BME280;27061;41.648;24.568;2023-04-25T13:20:38;84963.06;;;14.62;55.28
41312;BME280;27061;41.648;24.568;2023-04-25T13:23:05;84917.13;;;14.28;55.39
41312;BME280;27061;41.648;24.568;2023-04-25T13:25:32;84927.66;;;14.25;57.00